Time;durP1;ratioP1;P1;durP2;ratioP2;P2;SDS_P1;SDS_P2;PMS_P1;PMS_P2;Temp;Humidity;BMP_temperature;BMP_pressure;BME280_temperature;BME280_humidity;BME280_pressure;Samples;Min_cycle;Max_cycle;Signal;HPM_P1;HPM_P2
2021/09/20 00:01:30;;;;;;;0.50;0.50;;;;;;;18.50;48.14;101204.03;1774073;80;21041;-52
2021/09/20 00:03:57;;;;;;;0.53;0.47;;;;;;;18.52;48.02;101210.09;1774432;80;21494;-50
2021/09/20 00:06:24;;;;;;;1.22;0.57;;;;;;;18.50;48.15;101210.17;1775527;80;21014;-51
2021/09/20 00:08:52;;;;;;;1.27;0.60;;;;;;;18.51;47.98;101209.23;1774241;80;21041;-51
2021/09/20 00:11:20;;;;;;;1.82;0.70;;;;;;;18.49;47.83;101212.86;1772868;80;21120;-47
2021/09/20 00:13:48;;;;;;;0.80;0.70;;;;;;;18.49;47.78;101212.86;1771245;80;20999;-49
2021/09/20 00:16:14;;;;;;;1.75;1.05;;;;;;;18.47;47.98;101204.16;1771616;80;20993;-49
2021/09/20 00:18:42;;;;;;;1.00;0.88;;;;;;;18.45;48.27;101212.16;1780770;80;21026;-49
2021/09/20 00:21:09;;;;;;;1.27;1.00;;;;;;;18.43;47.96;101203.47;1772942;80;20993;-50
2021/09/20 00:23:36;;;;;;;1.95;0.95;;;;;;;18.42;47.74;101204.34;1772041;80;21002;-50
2021/09/20 00:26:04;;;;;;;1.35;0.88;;;;;;;18.42;47.78;101200.88;1771119;80;21017;-46
2021/09/20 00:28:31;;;;;;;1.15;1.05;;;;;;;18.45;48.08;101209.97;1770835;80;21517;-51
2021/09/20 00:30:59;;;;;;;1.17;1.07;;;;;;;18.48;48.06;101212.48;1789543;80;21072;-46
2021/09/20 00:33:26;;;;;;;2.27;1.10;;;;;;;18.46;48.07;101213.02;1771230;80;21032;-49
2021/09/20 00:35:55;;;;;;;1.30;0.98;;;;;;;18.46;47.89;101212.56;1771253;80;21022;-46
2021/09/20 00:38:24;;;;;;;1.07;0.88;;;;;;;18.46;48.08;101207.75;1772441;80;21528;-51
2021/09/20 00:40:52;;;;;;;1.40;1.00;;;;;;;18.45;47.99;101198.11;1774931;80;21040;-47
2021/09/20 00:43:20;;;;;;;0.95;0.72;;;;;;;18.47;47.83;101198.90;1776877;80;21029;-46
2021/09/20 00:45:47;;;;;;;1.10;0.75;;;;;;;18.47;48.29;101197.58;1774506;80;21465;-49
2021/09/20 00:48:14;;;;;;;4.00;0.85;;;;;;;18.47;48.45;101206.80;1774316;80;20990;-47
2021/09/20 00:50:43;;;;;;;1.40;1.02;;;;;;;18.48;48.66;101203.26;1773922;80;20990;-49
2021/09/20 00:53:10;;;;;;;0.98;0.85;;;;;;;18.46;48.88;101198.06;1771155;80;21045;-49
2021/09/20 00:55:40;;;;;;;1.30;0.90;;;;;;;18.45;48.73;101196.34;1771234;80;20991;-47
2021/09/20 00:58:09;;;;;;;1.27;1.00;;;;;;;18.47;48.42;101205.48;1772951;80;21541;-47
2021/09/20 01:00:36;;;;;;;0.88;0.82;;;;;;;18.46;48.55;101211.25;1773899;80;21088;-46
2021/09/20 01:03:02;;;;;;;1.12;0.85;;;;;;;18.46;48.70;101213.02;1772082;80;21006;-49
2021/09/20 01:05:29;;;;;;;2.08;0.90;;;;;;;18.45;48.80;101208.66;1772127;80;20958;-47
2021/09/20 01:07:56;;;;;;;1.30;1.00;;;;;;;18.43;48.97;101205.20;1771215;80;20974;-46
2021/09/20 01:10:23;;;;;;;1.00;0.88;;;;;;;18.41;48.99;101209.69;1772589;80;21099;-47
2021/09/20 01:12:50;;;;;;;1.90;0.78;;;;;;;18.37;49.12;101200.23;1774914;80;21314;-47
2021/09/20 01:15:17;;;;;;;0.78;0.75;;;;;;;18.37;49.35;101208.12;1774578;80;20973;-46
2021/09/20 01:17:44;;;;;;;1.25;1.00;;;;;;;18.34;49.46;101203.02;1774337;80;21037;-50
2021/09/20 01:20:13;;;;;;;0.80;0.80;;;;;;;18.33;49.79;101209.20;1774311;80;21010;-52
2021/09/20 01:22:41;;;;;;;1.90;0.80;;;;;;;18.30;49.80;101211.50;1772999;80;21002;-48
2021/09/20 01:25:09;;;;;;;1.50;1.10;;;;;;;18.28;49.91;101217.80;1775842;80;21002;-52
2021/09/20 01:27:36;;;;;;;1.65;0.90;;;;;;;18.25;49.84;101221.88;1776997;80;20993;-47
2021/09/20 01:30:06;;;;;;;1.47;0.98;;;;;;;18.23;49.67;101221.09;1774572;80;21562;-51
2021/09/20 01:32:34;;;;;;;1.30;0.98;;;;;;;18.19;49.90;101219.52;1774369;80;21028;-48
2021/09/20 01:35:00;;;;;;;1.30;1.05;;;;;;;18.16;49.56;101214.38;1774534;80;21030;-50
2021/09/20 01:37:27;;;;;;;1.00;0.80;;;;;;;18.15;49.47;101215.31;1771695;80;21068;-52
2021/09/20 01:39:54;;;;;;;2.37;0.82;;;;;;;18.11;49.15;101216.39;1771273;80;21037;-51
2021/09/20 01:42:20;;;;;;;1.47;0.95;;;;;;;18.09;49.25;101227.00;1773145;80;20961;-51
2021/09/20 01:44:47;;;;;;;1.17;1.02;;;;;;;18.08;49.37;101237.13;1774255;80;21014;-47
2021/09/20 01:47:13;;;;;;;1.50;0.85;;;;;;;18.07;49.23;101230.62;1772805;80;21509;-47
2021/09/20 01:49:41;;;;;;;1.98;1.10;;;;;;;18.05;49.26;101224.56;1774243;80;21014;-53
2021/09/20 01:52:07;;;;;;;1.12;0.78;;;;;;;18.04;49.39;101224.16;1775005;80;21013;-47
2021/09/20 01:54:34;;;;;;;1.45;1.00;;;;;;;18.02;49.33;101222.05;1774292;80;21041;-52
2021/09/20 01:57:01;;;;;;;1.30;1.05;;;;;;;18.01;49.38;101217.73;1779627;80;21502;-50
2021/09/20 01:59:28;;;;;;;4.37;1.02;;;;;;;18.03;49.46;101217.20;1773972;80;21053;-51
2021/09/20 02:01:54;;;;;;;1.07;0.90;;;;;;;18.03;49.75;101220.69;1774259;80;21033;-53
2021/09/20 02:04:21;;;;;;;0.90;0.80;;;;;;;18.06;49.67;101224.94;1774355;80;21049;-51
2021/09/20 02:06:48;;;;;;;1.57;1.12;;;;;;;18.07;49.43;101226.66;1777100;80;21021;-50
2021/09/20 02:09:14;;;;;;;1.17;0.70;;;;;;;18.07;49.16;101221.40;1771140;80;20974;-51
2021/09/20 02:11:41;;;;;;;2.70;1.00;;;;;;;18.06;49.27;101219.67;1770142;80;21057;-47
2021/09/20 02:14:09;;;;;;;1.15;0.70;;;;;;;18.05;49.37;101224.56;1775657;80;21014;-50
2021/09/20 02:16:37;;;;;;;1.02;0.95;;;;;;;18.09;49.67;101227.45;1766975;80;21063;-52
2021/09/20 02:19:05;;;;;;;2.33;1.00;;;;;;;18.11;49.84;101221.66;1768837;80;21026;-51
2021/09/20 02:21:32;;;;;;;2.83;1.10;;;;;;;18.16;49.85;101225.77;1765759;80;21476;-50
2021/09/20 02:24:00;;;;;;;2.42;1.12;;;;;;;18.20;50.27;101229.12;1765636;80;21034;-51
2021/09/20 02:26:27;;;;;;;1.22;1.05;;;;;;;18.24;50.62;101228.91;1781646;80;21498;-47
2021/09/20 02:28:54;;;;;;;2.20;1.02;;;;;;;18.28;50.79;101237.55;1767567;80;21026;-48
2021/09/20 02:31:21;;;;;;;1.45;1.30;;;;;;;18.29;50.80;101235.30;1766782;80;21462;-48
2021/09/20 02:33:48;;;;;;;1.27;1.10;;;;;;;18.34;50.95;101237.27;1765724;80;21568;-50
2021/09/20 02:36:15;;;;;;;1.20;1.10;;;;;;;18.41;50.77;101243.95;1765583;80;21029;-50
2021/09/20 02:38:42;;;;;;;3.25;2.02;;;;;;;18.45;50.54;101243.78;1768053;80;21017;-47
2021/09/20 02:41:09;;;;;;;6.87;2.85;;;;;;;18.50;50.41;101244.88;1768805;80;21052;-51
2021/09/20 02:43:36;;;;;;;8.50;3.80;;;;;;;18.51;50.21;101242.17;1768502;80;20998;-50
2021/09/20 02:46:03;;;;;;;7.70;4.22;;;;;;;18.55;50.08;101245.51;1772373;80;21021;-47
2021/09/20 02:48:30;;;;;;;7.78;4.62;;;;;;;18.61;49.87;101246.53;1765909;80;20989;-50
2021/09/20 02:50:57;;;;;;;12.55;4.95;;;;;;;18.64;49.75;101243.77;1767601;80;21008;-51
2021/09/20 02:53:25;;;;;;;10.00;4.70;;;;;;;18.63;49.79;101249.95;1769067;80;21542;-47
2021/09/20 02:55:52;;;;;;;7.65;4.60;;;;;;;18.67;49.41;101250.20;1779204;80;21030;-48
2021/09/20 02:58:19;;;;;;;5.53;3.60;;;;;;;18.62;49.38;101250.90;1765550;80;21005;-50
2021/09/20 03:00:45;;;;;;;10.03;3.70;;;;;;;18.62;49.47;101244.31;1766499;80;21085;-47
2021/09/20 03:03:12;;;;;;;10.85;3.87;;;;;;;18.60;49.43;101243.53;1768638;80;21022;-51
2021/09/20 03:05:39;;;;;;;6.75;3.62;;;;;;;18.58;49.25;101244.06;1766621;80;21479;-50
2021/09/20 03:08:06;;;;;;;7.05;3.45;;;;;;;18.56;49.25;101246.78;1771868;80;21033;-47
2021/09/20 03:10:35;;;;;;;7.22;4.40;;;;;;;18.56;49.15;101245.92;1763650;80;21025;-47
2021/09/20 03:13:01;;;;;;;10.20;5.50;;;;;;;18.54;49.15;101247.77;1770617;80;21061;-47
2021/09/20 03:15:28;;;;;;;10.90;5.47;;;;;;;18.54;49.17;101245.13;1774596;80;21020;-47
2021/09/20 03:17:55;;;;;;;10.45;4.47;;;;;;;18.53;48.92;101240.77;1774699;80;20998;-53
2021/09/20 03:20:23;;;;;;;10.35;4.30;;;;;;;18.52;48.96;101239.08;1774277;80;21549;-52
2021/09/20 03:22:52;;;;;;;10.85;4.25;;;;;;;18.49;49.01;101240.53;1774006;80;20982;-47
2021/09/20 03:25:19;;;;;;;5.33;3.72;;;;;;;18.46;49.07;101243.32;1774016;80;21541;-49
2021/09/20 03:27:46;;;;;;;4.37;2.95;;;;;;;18.44;49.19;101257.03;1770886;80;20973;-50
2021/09/20 03:30:15;;;;;;;4.42;2.67;;;;;;;18.40;49.16;101255.43;1771336;80;21002;-50
2021/09/20 03:32:42;;;;;;;4.85;2.12;;;;;;;18.38;49.27;101267.82;1773158;80;20978;-49
2021/09/20 03:35:12;;;;;;;2.15;1.40;;;;;;;18.36;49.24;101264.41;1773319;80;21037;-50
2021/09/20 03:37:38;;;;;;;2.02;1.35;;;;;;;18.36;49.06;101265.23;1772034;80;20970;-51
2021/09/20 03:40:08;;;;;;;1.80;1.30;;;;;;;18.38;48.88;101263.87;1772101;80;21529;-47
2021/09/20 03:42:34;;;;;;;2.00;1.40;;;;;;;18.38;48.88;101273.09;1770952;80;21040;-50
2021/09/20 03:45:02;;;;;;;0.93;0.90;;;;;;;18.37;48.68;101274.00;1772183;80;20997;-50
2021/09/20 03:47:29;;;;;;;2.87;1.22;;;;;;;18.34;48.53;101266.25;1774311;80;21009;-48
2021/09/20 03:49:55;;;;;;;1.82;1.00;;;;;;;18.30;48.64;101267.31;1774581;80;21005;-50
2021/09/20 03:52:22;;;;;;;1.87;1.00;;;;;;;18.26;48.64;101274.97;1783227;80;21041;-50
2021/09/20 03:54:48;;;;;;;1.62;1.00;;;;;;;18.22;48.62;101268.09;1771252;80;20992;-50
2021/09/20 03:57:16;;;;;;;1.62;0.82;;;;;;;18.20;48.64;101268.63;1773122;80;21025;-48
2021/09/20 03:59:42;;;;;;;1.22;1.10;;;;;;;18.18;48.82;101273.11;1774650;80;20990;-47
2021/09/20 04:02:10;;;;;;;1.35;1.10;;;;;;;18.15;48.69;101273.27;1773910;80;21516;-50
2021/09/20 04:04:36;;;;;;;0.90;0.90;;;;;;;18.12;48.71;101273.38;1774896;80;21006;-48
2021/09/20 04:07:06;;;;;;;1.10;1.00;;;;;;;18.11;48.55;101281.77;1774116;80;21021;-51
2021/09/20 04:09:33;;;;;;;1.67;1.10;;;;;;;18.11;48.67;101290.13;1772575;80;21017;-47
2021/09/20 04:12:02;;;;;;;0.70;0.70;;;;;;;18.11;48.66;101284.86;1770143;80;21045;-50
2021/09/20 04:14:29;;;;;;;1.77;1.02;;;;;;;18.09;48.58;101290.20;1766533;80;21042;-50
2021/09/20 04:16:57;;;;;;;0.90;0.90;;;;;;;18.09;48.55;101288.02;1775803;80;21022;-48
2021/09/20 04:19:24;;;;;;;1.47;1.10;;;;;;;18.07;48.63;101293.82;1767881;80;21474;-52
2021/09/20 04:21:52;;;;;;;1.25;0.93;;;;;;;18.06;48.67;101289.46;1779408;80;21032;-50
2021/09/20 04:24:20;;;;;;;1.47;1.07;;;;;;;18.05;48.61;101287.77;1770162;80;20983;-49
2021/09/20 04:26:49;;;;;;;1.05;1.00;;;;;;;18.03;48.55;101290.48;1769555;80;21060;-50
2021/09/20 04:29:17;;;;;;;2.42;1.00;;;;;;;18.04;48.64;101296.57;1768634;80;21044;-50
2021/09/20 04:31:44;;;;;;;0.85;0.85;;;;;;;18.04;48.42;101301.84;1769276;80;21093;-52
2021/09/20 04:34:11;;;;;;;2.30;1.10;;;;;;;18.04;48.59;101292.62;1768985;80;20974;-51
2021/09/20 04:36:38;;;;;;;2.85;1.80;;;;;;;18.08;48.50;101300.78;1767784;80;21037;-49
2021/09/20 04:39:04;;;;;;;6.67;2.70;;;;;;;18.10;48.33;101306.84;1765676;80;21001;-47
2021/09/20 04:41:31;;;;;;;6.45;2.92;;;;;;;18.10;48.13;101309.02;1765771;80;21046;-47
2021/09/20 04:43:59;;;;;;;4.65;2.72;;;;;;;18.13;48.00;101310.22;1768442;80;21101;-50
2021/09/20 04:46:25;;;;;;;8.10;2.90;;;;;;;18.13;47.72;101315.94;1767111;80;21001;-48
2021/09/20 04:48:53;;;;;;;7.75;3.33;;;;;;;18.10;47.84;101310.33;1768639;80;21061;-50
2021/09/20 04:51:20;;;;;;;7.60;3.00;;;;;;;18.11;47.98;101313.83;1779471;80;20993;-50
2021/09/20 04:53:46;;;;;;;4.47;2.12;;;;;;;18.11;48.08;101328.31;1766078;80;21057;-50
2021/09/20 04:56:14;;;;;;;3.33;1.90;;;;;;;18.10;48.04;101326.59;1767758;80;21533;-51
2021/09/20 04:58:41;;;;;;;2.50;1.70;;;;;;;18.10;48.08;101335.35;1767841;80;21022;-47
2021/09/20 05:01:07;;;;;;;6.47;1.67;;;;;;;18.13;47.93;101340.95;1768782;80;21037;-50
2021/09/20 05:03:34;;;;;;;3.05;1.40;;;;;;;18.14;47.81;101342.66;1765921;80;21005;-49
2021/09/20 05:06:01;;;;;;;4.80;1.32;;;;;;;18.16;47.45;101350.02;1765877;80;21032;-50
2021/09/20 05:08:28;;;;;;;4.83;1.77;;;;;;;18.18;47.30;101354.77;1768630;80;21490;-50
2021/09/20 05:10:55;;;;;;;3.33;1.45;;;;;;;18.16;47.06;101346.07;1768536;80;21017;-51
2021/09/20 05:13:23;;;;;;;3.95;1.65;;;;;;;18.16;46.91;101351.34;1769067;80;21049;-48
2021/09/20 05:15:50;;;;;;;3.45;2.10;;;;;;;18.15;46.86;101354.91;1772103;80;21017;-49
2021/09/20 05:18:18;;;;;;;4.25;2.35;;;;;;;18.16;46.79;101353.97;1770342;80;21041;-52
2021/09/20 05:20:47;;;;;;;3.22;1.90;;;;;;;18.15;46.72;101357.55;1771959;80;20974;-50
2021/09/20 05:23:15;;;;;;;3.35;2.12;;;;;;;18.15;46.64;101358.86;1768675;80;20998;-52
2021/09/20 05:25:42;;;;;;;5.17;2.35;;;;;;;18.14;46.67;101361.95;1768894;80;21008;-50
2021/09/20 05:28:10;;;;;;;2.62;1.92;;;;;;;18.11;46.78;101355.97;1768718;80;21471;-50
2021/09/20 05:30:38;;;;;;;5.15;2.27;;;;;;;18.09;46.61;101353.86;1765711;80;20970;-52
2021/09/20 05:33:04;;;;;;;2.85;2.25;;;;;;;18.07;46.71;101357.02;1765741;80;21033;-48
2021/09/20 05:35:31;;;;;;;5.42;1.85;;;;;;;18.04;46.48;101354.51;1767841;80;21510;-50
2021/09/20 05:37:57;;;;;;;2.87;2.00;;;;;;;18.03;46.58;101347.55;1767732;80;21010;-51
2021/09/20 05:40:24;;;;;;;1.70;1.60;;;;;;;18.03;46.79;101347.55;1766781;80;20986;-51
2021/09/20 05:42:56;;;;;;;2.60;1.50;;;;;;;18.03;46.92;101344.91;1769118;80;21068;-48
2021/09/20 05:45:19;;;;;;;3.50;1.98;;;;;;;18.04;47.13;101343.98;1766303;80;21029;-47
2021/09/20 05:47:46;;;;;;;4.33;1.98;;;;;;;18.07;47.37;101346.49;1773772;80;20998;-50
2021/09/20 05:50:14;;;;;;;6.45;2.20;;;;;;;18.12;47.37;101341.86;1770438;80;20950;-47
2021/09/20 05:52:41;;;;;;;8.93;2.55;;;;;;;18.17;47.30;101342.53;1770786;80;21470;-48
2021/09/20 05:55:09;;;;;;;3.55;2.20;;;;;;;18.23;47.08;101346.21;1771930;80;20971;-47
2021/09/20 05:57:35;;;;;;;4.42;2.27;;;;;;;18.28;47.03;101344.25;1769953;80;21013;-48
2021/09/20 06:00:03;;;;;;;5.08;2.58;;;;;;;18.33;46.81;101336.98;1768959;80;21017;-46
2021/09/20 06:02:32;;;;;;;46.80;7.37;;;;;;;18.39;46.85;101338.02;1766567;80;21006;-47
2021/09/20 06:05:00;;;;;;;4.65;2.70;;;;;;;18.43;46.96;101339.59;1767701;80;21482;-51
2021/09/20 06:07:28;;;;;;;7.05;2.92;;;;;;;18.47;46.62;101341.20;1765545;80;21493;-52
2021/09/20 06:09:55;;;;;;;8.30;2.35;;;;;;;18.51;46.53;101347.59;1765793;80;21504;-50
2021/09/20 06:12:22;;;;;;;2.70;1.45;;;;;;;18.55;46.68;101352.25;1768487;80;21002;-47
2021/09/20 06:14:50;;;;;;;2.67;1.45;;;;;;;18.56;46.64;101349.56;1768155;80;21030;-49
2021/09/20 06:17:17;;;;;;;1.22;1.17;;;;;;;18.59;46.55;101348.55;1774493;80;21014;-47
2021/09/20 06:19:46;;;;;;;2.02;1.82;;;;;;;18.60;46.47;101347.19;1770746;80;21014;-47
2021/09/20 06:22:12;;;;;;;2.85;1.20;;;;;;;18.63;46.64;101346.16;1769281;80;21482;-51
2021/09/20 06:24:39;;;;;;;1.30;1.20;;;;;;;18.62;46.70;101345.79;1766940;80;20998;-48
2021/09/20 06:27:06;;;;;;;4.55;1.30;;;;;;;18.63;46.82;101345.70;1766409;80;21001;-53
2021/09/20 06:29:33;;;;;;;1.05;0.98;;;;;;;18.67;46.66;101351.69;1765751;80;21013;-47
2021/09/20 06:32:00;;;;;;;13.75;2.25;;;;;;;18.70;46.38;101348.92;1767016;80;21014;-51
2021/09/20 06:34:27;;;;;;;2.95;1.30;;;;;;;18.74;46.35;101351.81;1769464;80;21494;-49
2021/09/20 06:36:55;;;;;;;2.95;1.50;;;;;;;18.76;45.99;101348.64;1768764;80;21026;-52
2021/09/20 06:39:22;;;;;;;1.87;1.12;;;;;;;18.79;46.20;101349.84;1768748;80;21003;-47
2021/09/20 06:41:49;;;;;;;1.80;1.17;;;;;;;18.83;46.22;101346.59;1769866;80;21037;-49
2021/09/20 06:44:15;;;;;;;9.65;1.42;;;;;;;18.84;46.08;101351.78;1765939;80;21076;-49
2021/09/20 06:46:44;;;;;;;4.65;1.00;;;;;;;18.89;46.37;101359.48;1767417;80;21049;-50
2021/09/20 06:49:10;;;;;;;1.25;1.00;;;;;;;18.93;46.23;101361.91;1768392;80;20990;-47
2021/09/20 06:51:37;;;;;;;1.25;0.98;;;;;;;18.97;45.87;101360.84;1766819;80;20974;-51
2021/09/20 06:54:04;;;;;;;0.85;0.85;;;;;;;19.02;44.81;101366.74;1765721;80;21006;-51
2021/09/20 06:56:31;;;;;;;1.05;0.90;;;;;;;19.06;44.28;101364.35;1765535;80;21060;-48
2021/09/20 06:58:58;;;;;;;2.47;1.10;;;;;;;19.13;43.81;101367.10;1767595;80;20989;-47
2021/09/20 07:01:24;;;;;;;0.78;0.78;;;;;;;19.19;43.73;101369.45;1768737;80;21485;-52
2021/09/20 07:03:51;;;;;;;1.47;0.80;;;;;;;19.24;43.42;101364.82;1769096;80;20978;-51
2021/09/20 07:06:17;;;;;;;1.20;0.95;;;;;;;19.29;43.40;101361.48;1768671;80;21487;-47
2021/09/20 07:08:44;;;;;;;1.60;1.00;;;;;;;19.38;43.41;101363.73;1768615;80;21105;-49
2021/09/20 07:11:11;;;;;;;0.80;0.80;;;;;;;19.45;43.45;101370.40;1766477;80;21025;-52
2021/09/20 07:13:38;;;;;;;1.27;0.88;;;;;;;19.47;42.73;101366.39;1772782;80;21029;-46
2021/09/20 07:16:05;;;;;;;1.05;0.85;;;;;;;19.51;43.17;101372.36;1778491;80;21009;-49
2021/09/20 07:18:32;;;;;;;0.80;0.80;;;;;;;19.56;42.96;101375.16;1774123;80;21068;-47
2021/09/20 07:20:59;;;;;;;1.37;0.90;;;;;;;19.60;43.23;101373.24;1774327;80;21013;-48
2021/09/20 07:23:26;;;;;;;1.00;0.90;;;;;;;19.62;43.08;101368.75;1772755;80;21549;-47
2021/09/20 07:25:53;;;;;;;1.07;1.00;;;;;;;19.60;42.97;101370.11;1770869;80;21001;-50
2021/09/20 07:28:19;;;;;;;0.85;0.85;;;;;;;19.60;43.10;101370.61;1772168;80;21486;-47
2021/09/20 07:30:47;;;;;;;1.95;0.93;;;;;;;19.61;43.06;101378.90;1774142;80;21069;-47
2021/09/20 07:33:14;;;;;;;1.20;1.10;;;;;;;19.63;43.49;101369.11;1779480;80;20974;-49
2021/09/20 07:35:40;;;;;;;1.32;1.07;;;;;;;19.66;43.47;101368.49;1777366;80;20985;-51
2021/09/20 07:38:07;;;;;;;1.57;0.90;;;;;;;19.68;43.24;101367.95;1741471;80;21001;-48
2021/09/20 07:40:34;;;;;;;1.52;0.78;;;;;;;19.69;43.46;101371.45;1772586;80;21489;-51
2021/09/20 07:43:01;;;;;;;1.02;1.02;;;;;;;19.72;43.30;101377.91;1774293;80;21040;-46
2021/09/20 07:45:29;;;;;;;1.87;1.02;;;;;;;19.73;43.26;101376.97;1785042;80;21021;-46
2021/09/20 07:47:55;;;;;;;2.58;1.00;;;;;;;19.75;43.67;101379.06;1772254;80;20974;-50
2021/09/20 07:50:22;;;;;;;1.27;1.10;;;;;;;19.76;43.87;101379.02;1778168;80;21028;-49
2021/09/20 07:52:49;;;;;;;0.72;0.70;;;;;;;19.79;43.39;101385.91;1741251;80;21017;-49
2021/09/20 07:55:16;;;;;;;0.80;0.80;;;;;;;19.78;43.07;101382.89;1772602;80;21490;-53
2021/09/20 07:57:43;;;;;;;1.00;0.90;;;;;;;19.79;43.34;101373.56;1774237;80;21056;-50
2021/09/20 08:00:12;;;;;;;0.82;0.82;;;;;;;19.81;43.19;101373.48;1774785;80;21029;-53
2021/09/20 08:02:38;;;;;;;0.65;0.65;;;;;;;19.82;43.55;101369.92;1774184;80;21497;-51
2021/09/20 08:05:06;;;;;;;3.17;1.02;;;;;;;19.82;43.05;101368.60;1774752;80;21014;-47
2021/09/20 08:07:33;;;;;;;0.90;0.90;;;;;;;19.83;43.14;101371.61;1777782;80;21505;-51
2021/09/20 08:10:01;;;;;;;1.75;1.10;;;;;;;19.82;43.56;101369.92;1777510;80;21006;-51
2021/09/20 08:12:29;;;;;;;0.80;0.72;;;;;;;19.85;43.81;101375.03;1782234;80;21010;-51
2021/09/20 08:14:56;;;;;;;0.95;0.88;;;;;;;19.87;43.36;101378.45;1772825;80;21018;-50
2021/09/20 08:17:22;;;;;;;1.20;1.10;;;;;;;19.88;42.94;101367.83;1771022;80;21021;-50
2021/09/20 08:19:50;;;;;;;1.00;0.93;;;;;;;19.88;43.09;101369.61;1773460;80;20977;-48
2021/09/20 08:22:17;;;;;;;1.30;1.20;;;;;;;19.88;43.22;101370.94;1780695;80;20978;-50
2021/09/20 08:24:45;;;;;;;1.22;1.10;;;;;;;19.88;43.12;101377.08;1773894;80;20970;-48
2021/09/20 08:27:14;;;;;;;4.35;1.00;;;;;;;19.91;43.19;101375.59;1771118;80;21013;-52
2021/09/20 08:29:41;;;;;;;1.15;0.93;;;;;;;19.97;43.12;101374.45;1771298;80;21442;-49
2021/09/20 08:32:09;;;;;;;1.42;0.93;;;;;;;20.03;42.65;101374.12;1772835;80;20989;-51
2021/09/20 08:34:38;;;;;;;1.30;0.95;;;;;;;20.07;42.83;101374.36;1773568;80;20998;-50
2021/09/20 08:37:04;;;;;;;5.22;1.22;;;;;;;20.10;42.74;101379.47;1779045;80;20937;-51
2021/09/20 08:39:31;;;;;;;1.35;1.00;;;;;;;20.12;42.98;101377.14;1772017;80;20954;-48
2021/09/20 08:41:58;;;;;;;0.85;0.85;;;;;;;20.16;43.18;101375.19;1771250;80;21021;-47
2021/09/20 08:44:26;;;;;;;1.35;1.25;;;;;;;20.21;43.03;101375.86;1772298;80;21017;-47
2021/09/20 08:46:53;;;;;;;1.50;1.12;;;;;;;20.22;43.08;101374.45;1776642;80;21488;-48
2021/09/20 08:49:23;;;;;;;1.47;1.35;;;;;;;20.24;43.11;101373.04;1774292;80;21568;-49
2021/09/20 08:51:57;;;;;;;2.15;1.17;;;;;;;20.27;43.42;101370.25;1774782;80;21498;-48
2021/09/20 08:54:24;;;;;;;2.90;1.00;;;;;;;20.18;43.40;101370.22;1774212;80;21482;-53
2021/09/20 08:56:51;;;;;;;1.25;1.15;;;;;;;20.10;43.79;101375.51;1772952;80;21057;-49
2021/09/20 08:59:19;;;;;;;0.90;0.90;;;;;;;20.34;43.54;101384.84;1771110;80;21028;-48
2021/09/20 09:01:49;;;;;;;1.47;0.98;;;;;;;20.46;43.09;101384.23;1771698;80;20987;-50
2021/09/20 09:04:30;;;;;;;1.30;1.12;;;;;;;20.57;42.89;101386.27;1781431;80;21045;-47
2021/09/20 09:07:04;;;;;;;1.37;0.90;;;;;;;20.60;43.02;101377.73;1781627;80;21034;-51
2021/09/20 09:09:36;;;;;;;2.65;1.12;;;;;;;20.67;43.02;101380.91;1775661;80;21027;-48
2021/09/20 09:12:20;;;;;;;1.05;0.93;;;;;;;20.71;42.81;101376.67;1773186;80;21040;-48
2021/09/20 09:14:52;;;;;;;1.10;1.00;;;;;;;20.76;42.67;101374.64;1763480;80;21097;-47
2021/09/20 09:17:28;;;;;;;1.20;1.00;;;;;;;20.62;43.02;101375.86;1762421;80;21005;-48
2021/09/20 09:19:59;;;;;;;1.67;1.30;;;;;;;20.81;43.23;101363.33;1772115;80;21060;-48
2021/09/20 09:22:58;;;;;;;1.42;1.32;;;;;;;20.90;43.17;101358.87;1661932;86;21057;-48
2021/09/20 09:25:48;;;;;;;1.22;1.12;;;;;;;20.97;43.06;101348.35;1712593;83;21077;-52
2021/09/20 09:28:19;;;;;;;1.12;1.02;;;;;;;21.03;42.85;101345.40;1706697;83;21068;-52
2021/09/20 09:30:55;;;;;;;1.67;1.40;;;;;;;21.15;42.70;101346.50;1712951;83;21616;-48
2021/09/20 09:33:25;;;;;;;1.20;1.05;;;;;;;21.19;42.35;101346.70;1712698;83;21048;-47
2021/09/20 09:35:54;;;;;;;1.10;1.00;;;;;;;21.24;42.27;101354.39;1712307;83;21597;-52
2021/09/20 09:38:21;;;;;;;1.30;1.20;;;;;;;21.29;42.00;101357.65;1716915;83;21058;-50
2021/09/20 09:40:57;;;;;;;1.12;1.05;;;;;;;21.33;42.20;101357.36;1710899;83;21620;-47
2021/09/20 09:43:28;;;;;;;1.35;1.20;;;;;;;21.39;42.20;101356.19;1717351;83;21045;-48
2021/09/20 09:46:00;;;;;;;1.23;1.13;;;;;;;21.45;41.80;101355.83;1650733;85;21050;-49
2021/09/20 09:48:32;;;;;;;1.30;1.20;;;;;;;21.52;41.68;101354.52;1652695;85;21061;-50
2021/09/20 09:51:02;;;;;;;1.87;0.78;;;;;;;21.57;41.58;101348.51;1651361;85;21670;-49
2021/09/20 09:53:42;;;;;;;1.22;1.02;;;;;;;21.64;41.68;101353.81;1652113;86;21050;-48
2021/09/20 09:56:24;;;;;;;1.57;1.02;;;;;;;21.68;41.03;101347.39;1651477;86;21025;-47
2021/09/20 09:58:59;;;;;;;2.52;0.90;;;;;;;21.54;41.40;101348.67;1651135;86;21057;-50
2021/09/20 10:01:36;;;;;;;1.12;0.90;;;;;;;21.72;40.98;101344.48;1650326;86;21097;-52
2021/09/20 10:04:21;;;;;;;2.12;1.17;;;;;;;21.78;40.69;101335.34;1622349;87;21017;-50
2021/09/20 10:06:57;;;;;;;1.47;1.05;;;;;;;21.84;40.89;101337.66;1623673;87;21101;-49
2021/09/20 10:09:29;;;;;;;2.87;0.93;;;;;;;21.89;40.01;101335.58;1625723;87;21124;-48
2021/09/20 10:11:59;;;;;;;0.85;0.85;;;;;;;21.93;40.03;101331.80;1625754;87;21058;-51
2021/09/20 10:14:28;;;;;;;1.98;1.60;;;;;;;21.95;40.10;101329.91;1625283;87;21625;-50
2021/09/20 10:16:57;;;;;;;1.47;1.15;;;;;;;21.98;40.41;101337.69;1625870;87;21018;-49
2021/09/20 10:19:25;;;;;;;2.45;1.20;;;;;;;21.99;39.85;101331.43;1625439;87;21052;-50
2021/09/20 10:21:52;;;;;;;1.60;1.40;;;;;;;22.02;39.89;101323.31;1625325;87;21558;-47
2021/09/20 10:24:22;;;;;;;5.75;1.32;;;;;;;22.05;40.17;101331.06;1593904;89;21019;-50
2021/09/20 10:26:49;;;;;;;1.57;1.37;;;;;;;22.08;40.14;101330.89;1593954;89;21045;-52
2021/09/20 10:29:17;;;;;;;3.10;1.37;;;;;;;22.12;39.81;101335.06;1592732;89;21085;-51
2021/09/20 10:31:46;;;;;;;1.00;1.00;;;;;;;22.13;39.47;101328.83;1566088;91;21125;-47
2021/09/20 10:34:24;;;;;;;1.40;0.93;;;;;;;22.16;39.87;101320.67;1581975;90;21057;-50
2021/09/20 10:37:13;;;;;;;0.90;0.90;;;;;;;22.19;39.89;101322.30;1581645;90;21164;-50
2021/09/20 10:39:51;;;;;;;0.90;0.90;;;;;;;22.21;39.96;101329.22;1582552;90;21073;-52
2021/09/20 10:42:46;;;;;;;1.45;1.20;;;;;;;22.25;39.85;101336.03;1594776;89;21045;-47
2021/09/20 10:45:38;;;;;;;3.35;1.40;;;;;;;22.27;39.58;101326.19;1610748;89;21056;-51
2021/09/20 10:48:20;;;;;;;3.20;1.37;;;;;;;22.30;39.32;101325.98;1608722;89;21120;-47
2021/09/20 10:50:54;;;;;;;2.52;1.15;;;;;;;22.34;39.55;101319.55;1591408;90;21104;-50
2021/09/20 10:53:32;;;;;;;1.00;0.95;;;;;;;22.36;39.13;101321.63;1593331;90;21060;-54
2021/09/20 10:56:07;;;;;;;2.30;1.15;;;;;;;22.38;38.85;101317.08;1593283;90;21093;-53
2021/09/20 10:58:40;;;;;;;1.10;1.00;;;;;;;22.40;39.21;101323.14;1593718;90;21084;-52
2021/09/20 11:01:19;;;;;;;1.05;0.95;;;;;;;22.44;39.00;101323.33;1637936;85;21054;-49
2021/09/20 11:03:58;;;;;;;1.22;1.00;;;;;;;22.46;38.57;101324.09;1649347;87;21023;-50
2021/09/20 11:06:37;;;;;;;1.30;1.17;;;;;;;22.46;38.52;101329.39;1649705;87;21054;-48
2021/09/20 11:09:12;;;;;;;2.98;1.12;;;;;;;22.46;38.98;101330.72;1649288;87;21070;-47
2021/09/20 11:11:44;;;;;;;1.42;1.20;;;;;;;22.49;38.72;101326.56;1649798;86;21626;-52
2021/09/20 11:14:24;;;;;;;2.70;1.20;;;;;;;22.52;38.64;101315.75;1649245;87;21158;-51
2021/09/20 11:17:02;;;;;;;1.27;1.05;;;;;;;22.55;38.71;101307.61;1636651;87;21606;-47
2021/09/20 11:19:35;;;;;;;1.30;1.20;;;;;;;22.59;38.74;101301.20;1639271;87;21127;-48
2021/09/20 11:22:13;;;;;;;1.60;1.30;;;;;;;22.63;39.04;101296.55;1637912;87;22614;-48
2021/09/20 11:24:45;;;;;;;2.20;1.50;;;;;;;22.43;39.59;101296.91;1649450;86;21547;-48
2021/09/20 11:27:32;;;;;;;1.77;1.37;;;;;;;22.49;39.62;101308.00;1653744;84;21496;-52
2021/09/20 11:30:12;;;;;;;2.02;1.50;;;;;;;22.76;38.85;101304.59;1703871;84;21080;-48
2021/09/20 11:32:56;;;;;;;1.60;1.27;;;;;;;22.85;38.56;101301.36;1668900;86;21038;-51